Time;durP1;ratioP1;P1;durP2;ratioP2;P2;SDS_P1;SDS_P2;PMS_P1;PMS_P2;Temp;Humidity;BMP_temperature;BMP_pressure;BME280_temperature;BME280_humidity;BME280_pressure;Samples;Min_cycle;Max_cycle;Signal;HPM_P1;HPM_P2
2022/01/06 00:00:22;;;;;;;5.70;1.70;;;0.80;96.30;;;;;;4898760;29;20513;-72
2022/01/06 00:02:47;;;;;;;6.40;1.73;;;0.80;96.30;;;;;;4915858;29;20405;-71
2022/01/06 00:05:13;;;;;;;1.77;1.37;;;0.80;96.30;;;;;;4914963;29;20468;-71
2022/01/06 00:07:38;;;;;;;3.63;1.83;;;0.80;96.30;;;;;;4915386;29;20258;-72
2022/01/06 00:10:07;;;;;;;4.33;1.90;;;0.80;96.30;;;;;;4927569;29;20230;-71
2022/01/06 00:12:41;;;;;;;5.50;1.53;;;0.80;96.30;;;;;;4934483;29;20202;-72
2022/01/06 00:15:27;;;;;;;2.50;1.47;;;0.80;96.30;;;;;;4934559;29;20454;-72
2022/01/06 00:18:14;;;;;;;1.50;1.00;;;0.80;96.30;;;;;;4934643;29;20420;-71
2022/01/06 00:23:35;;;;;;;4.30;1.73;;;0.80;96.30;;;;;;4934336;29;20799;-72
2022/01/06 00:26:01;;;;;;;3.40;1.37;;;0.80;96.30;;;;;;4934468;29;21041;-71
2022/01/06 00:28:28;;;;;;;1.90;1.37;;;0.70;96.30;;;;;;4934545;29;20459;-72
2022/01/06 00:30:54;;;;;;;5.00;1.30;;;0.70;96.30;;;;;;4934523;29;20438;-72
2022/01/06 00:33:20;;;;;;;4.10;1.80;;;0.70;96.30;;;;;;4934348;29;20407;-73
2022/01/06 00:35:46;;;;;;;3.67;1.47;;;0.70;96.30;;;;;;4934381;29;20214;-73
2022/01/06 00:38:11;;;;;;;2.40;1.50;;;0.70;96.30;;;;;;4917344;29;20459;-73
2022/01/06 00:40:38;;;;;;;1.40;1.20;;;0.70;96.30;;;;;;4934170;29;20207;-72
2022/01/06 00:43:05;;;;;;;1.50;1.23;;;0.70;96.30;;;;;;4917261;29;20231;-72
2022/01/06 00:45:32;;;;;;;1.87;1.37;;;0.70;96.30;;;;;;4934255;29;20513;-72
2022/01/06 00:47:57;;;;;;;4.93;1.40;;;0.70;96.30;;;;;;4934314;29;20434;-72
2022/01/06 00:50:24;;;;;;;3.40;1.47;;;0.70;96.30;;;;;;4934303;29;20412;-72
2022/01/06 00:52:49;;;;;;;3.57;1.37;;;0.70;96.30;;;;;;4934170;29;20226;-72
2022/01/06 00:55:15;;;;;;;3.77;1.80;;;0.70;96.30;;;;;;4934071;29;20415;-72
2022/01/06 00:57:41;;;;;;;2.97;1.27;;;0.70;96.30;;;;;;4934360;29;20171;-72
2022/01/06 05:02:33;;;;;;;0.73;0.43;;;0.30;96.30;;;;;;4932609;29;20488;-74
2022/01/06 05:04:59;;;;;;;0.77;0.43;;;0.20;96.30;;;;;;4936249;29;20431;-75
2022/01/06 05:07:24;;;;;;;0.90;0.40;;;0.00;96.30;;;;;;4938136;29;20180;-75
2022/01/06 05:09:50;;;;;;;0.77;0.40;;;-0.10;96.30;;;;;;4937979;29;20603;-73
2022/01/06 05:12:15;;;;;;;0.80;0.50;;;-0.20;96.30;;;;;;4953896;29;20195;-75
2022/01/06 05:14:42;;;;;;;1.67;0.50;;;-0.40;96.30;;;;;;4940151;29;20183;-75
2022/01/06 05:17:08;;;;;;;0.80;0.57;;;-0.70;96.30;;;;;;4957516;29;20206;-75
2022/01/06 05:19:33;;;;;;;0.80;0.60;;;-1.00;96.30;;;;;;4939745;29;20893;-75
2022/01/06 05:21:59;;;;;;;1.00;0.50;;;-1.20;96.30;;;;;;4938165;29;20439;-75
2022/01/06 05:24:25;;;;;;;3.27;1.17;;;-1.40;96.30;;;;;;4937512;29;20647;-74
2022/01/06 05:26:54;;;;;;;1.00;0.70;;;-1.40;96.30;;;;;;4938144;29;20493;-74
2022/01/06 05:29:20;;;;;;;1.77;0.80;;;-1.40;96.30;;;;;;4937954;29;20577;-75
2022/01/06 06:15:47;;;;;;;2.50;1.20;;;-1.50;96.30;;;;;;4991115;23;20546;-74
2022/01/06 06:18:12;;;;;;;1.60;1.10;;;-1.50;96.30;;;;;;4935883;29;20844;-74
2022/01/06 06:20:39;;;;;;;4.53;1.30;;;-1.50;96.30;;;;;;4935458;29;20204;-75
2022/01/06 06:23:05;;;;;;;3.07;1.20;;;-1.60;96.30;;;;;;4936789;29;20190;-74
2022/01/06 06:25:31;;;;;;;5.67;1.90;;;-1.60;96.30;;;;;;4928764;29;20468;-75
2022/01/06 06:27:56;;;;;;;4.63;1.30;;;-1.60;96.30;;;;;;4920972;29;20180;-75
2022/01/06 06:30:22;;;;;;;3.33;1.70;;;-1.60;96.30;;;;;;4917359;29;20199;-75
2022/01/06 06:32:47;;;;;;;1.10;0.87;;;-1.70;96.30;;;;;;4917460;29;20172;-74
2022/01/06 06:35:13;;;;;;;3.10;1.50;;;-1.90;96.30;;;;;;4924567;29;20671;-75
2022/01/06 06:37:39;;;;;;;6.70;1.33;;;-2.00;96.30;;;;;;4925774;29;20231;-75
2022/01/06 06:40:06;;;;;;;3.27;1.47;;;-2.10;96.30;;;;;;4916407;29;20180;-74
2022/01/06 06:42:32;;;;;;;4.83;1.50;;;-2.10;96.30;;;;;;4917361;29;20959;-74
2022/01/06 06:44:58;;;;;;;1.87;1.30;;;-2.10;96.30;;;;;;4916751;29;20511;-73
2022/01/06 06:47:23;;;;;;;2.00;1.13;;;-2.10;96.30;;;;;;4917514;29;20936;-73
2022/01/06 06:49:49;;;;;;;6.43;1.40;;;-2.00;96.30;;;;;;4917055;29;20267;-73
2022/01/06 06:52:15;;;;;;;4.10;1.50;;;-2.00;96.30;;;;;;4923147;29;20210;-73
2022/01/06 06:54:41;;;;;;;7.63;1.50;;;-2.10;96.30;;;;;;4935716;29;20258;-72
2022/01/06 06:57:07;;;;;;;3.70;1.20;;;-2.20;96.30;;;;;;4933859;29;20180;-72
2022/01/06 06:59:32;;;;;;;5.50;1.40;;;-2.20;96.30;;;;;;4923812;29;20184;-73
2022/01/06 07:01:58;;;;;;;4.93;1.50;;;-2.30;96.30;;;;;;4917095;29;20210;-73
2022/01/06 07:04:23;;;;;;;2.93;1.13;;;-2.20;96.30;;;;;;4915270;29;20215;-73
2022/01/06 07:06:49;;;;;;;1.40;1.03;;;-2.20;96.30;;;;;;4917161;29;20244;-74
2022/01/06 07:09:14;;;;;;;3.13;1.20;;;-2.20;96.30;;;;;;4921166;29;20184;-74
2022/01/06 07:11:40;;;;;;;3.10;1.20;;;-2.30;96.30;;;;;;4929445;29;20200;-74
2022/01/06 07:14:06;;;;;;;3.10;1.50;;;-2.30;96.30;;;;;;4930982;29;20172;-73
2022/01/06 07:16:31;;;;;;;1.80;1.10;;;-2.20;96.30;;;;;;4929422;29;20663;-73
2022/01/06 07:18:57;;;;;;;4.30;0.87;;;-2.10;96.30;;;;;;4924006;29;20208;-75
2022/01/06 07:21:22;;;;;;;3.27;1.40;;;-2.10;96.30;;;;;;4923992;29;20204;-73
2022/01/06 07:23:48;;;;;;;5.33;1.37;;;-2.10;96.30;;;;;;4916876;29;20251;-76
2022/01/06 07:26:13;;;;;;;2.10;1.20;;;-2.20;96.30;;;;;;4916919;29;20207;-73
2022/01/06 07:28:39;;;;;;;2.80;1.33;;;-2.20;96.30;;;;;;4916767;29;20595;-73
2022/01/06 07:31:04;;;;;;;2.03;1.23;;;-2.30;96.30;;;;;;4931556;29;20196;-74
2022/01/06 07:33:31;;;;;;;2.53;1.30;;;-2.30;96.30;;;;;;4935990;29;20227;-74
2022/01/06 07:35:57;;;;;;;3.47;1.33;;;-2.40;96.30;;;;;;4921910;29;20180;-74
2022/01/06 07:38:23;;;;;;;2.70;1.10;;;-2.50;96.30;;;;;;4923849;29;20435;-74
2022/01/06 07:40:48;;;;;;;4.37;1.23;;;-2.60;96.30;;;;;;4921730;29;20496;-73
2022/01/06 07:43:14;;;;;;;2.60;0.97;;;-2.70;96.30;;;;;;4919154;29;20432;-73
2022/01/06 07:45:39;;;;;;;1.80;0.90;;;-2.70;96.30;;;;;;4918439;29;20219;-73
2022/01/06 07:48:15;;;;;;;3.50;1.20;;;-2.80;96.30;;;;;;4915631;29;20526;-73
2022/01/06 07:50:42;;;;;;;3.77;1.30;;;-2.80;96.30;;;;;;4917974;29;20187;-73
2022/01/06 07:53:07;;;;;;;1.67;0.90;;;-2.90;96.30;;;;;;4931103;29;20421;-74
2022/01/06 07:55:33;;;;;;;1.97;1.10;;;-2.90;96.30;;;;;;4922453;29;20437;-74
2022/01/06 07:57:58;;;;;;;3.20;1.07;;;-2.90;96.30;;;;;;4929009;29;20242;-73
2022/01/06 08:00:25;;;;;;;1.87;1.00;;;-2.80;96.30;;;;;;4920336;29;20257;-74
2022/01/06 08:02:50;;;;;;;3.77;1.00;;;-2.80;96.30;;;;;;4924364;29;20243;-74
2022/01/06 08:05:18;;;;;;;3.30;1.03;;;-2.70;96.30;;;;;;4914550;29;20839;-71
2022/01/06 08:07:44;;;;;;;2.70;0.90;;;-2.60;96.30;;;;;;4916225;29;20176;-71
2022/01/06 08:10:10;;;;;;;6.33;1.10;;;-2.40;96.30;;;;;;4928767;29;20625;-76
2022/01/06 08:12:36;;;;;;;2.13;0.90;;;-2.10;96.30;;;;;;4933799;29;20172;-72
2022/01/06 08:15:02;;;;;;;2.77;1.30;;;-2.00;96.30;;;;;;4933623;29;20439;-75
2022/01/06 08:17:29;;;;;;;2.60;1.00;;;-2.00;96.30;;;;;;4929486;29;20447;-74
2022/01/06 08:19:57;;;;;;;7.07;2.33;;;-2.00;96.30;;;;;;4934995;29;20892;-72
2022/01/06 08:22:23;;;;;;;5.00;1.43;;;-1.90;96.30;;;;;;4918681;29;20451;-74
2022/01/06 08:24:51;;;;;;;3.10;1.30;;;-1.90;96.30;;;;;;4914461;29;20424;-74
2022/01/06 08:27:18;;;;;;;2.20;1.00;;;-1.80;96.30;;;;;;4909769;29;20270;-75
2022/01/06 08:29:43;;;;;;;2.17;1.00;;;-1.70;96.30;;;;;;4920249;29;20436;-73
2022/01/06 08:32:09;;;;;;;3.80;1.57;;;-1.70;96.30;;;;;;4928680;29;20455;-75
2022/01/06 08:34:35;;;;;;;5.63;1.43;;;-1.60;96.30;;;;;;4920364;29;20184;-74
2022/01/06 08:37:00;;;;;;;8.30;2.90;;;-1.60;96.30;;;;;;4919746;29;20190;-72
2022/01/06 08:39:26;;;;;;;3.80;1.47;;;-1.60;96.30;;;;;;4919699;29;20184;-72
2022/01/06 08:41:53;;;;;;;3.50;1.20;;;-1.50;96.30;;;;;;4928438;29;20203;-72
2022/01/06 08:44:19;;;;;;;5.60;1.70;;;-1.50;96.30;;;;;;4925128;29;20184;-75
2022/01/06 08:46:46;;;;;;;3.43;1.03;;;-1.40;96.30;;;;;;4930672;29;20823;-72
2022/01/06 08:49:12;;;;;;;4.53;1.63;;;-1.40;96.30;;;;;;4938962;29;20180;-72
2022/01/06 08:51:38;;;;;;;6.20;1.40;;;-1.40;96.30;;;;;;4938796;29;20430;-71
2022/01/06 08:54:06;;;;;;;3.07;1.33;;;-1.40;96.30;;;;;;4938587;29;20457;-72
2022/01/06 08:56:35;;;;;;;3.10;1.57;;;-1.40;96.30;;;;;;4937126;29;20418;-73
2022/01/06 08:59:01;;;;;;;3.00;1.17;;;-1.40;96.30;;;;;;4938373;29;20427;-72
2022/01/06 09:01:27;;;;;;;5.63;1.27;;;-1.20;96.30;;;;;;4937022;29;20443;-72
2022/01/06 09:03:52;;;;;;;4.00;1.20;;;-1.20;96.30;;;;;;4938142;29;20180;-72
2022/01/06 09:06:19;;;;;;;2.97;1.13;;;-1.20;96.30;;;;;;4938170;29;20767;-72
2022/01/06 09:08:45;;;;;;;4.13;1.70;;;-1.30;96.30;;;;;;4938123;29;20222;-71
2022/01/06 09:11:11;;;;;;;4.50;2.03;;;-1.20;96.30;;;;;;4920411;29;20531;-72
2022/01/06 09:13:36;;;;;;;2.20;1.20;;;-1.10;96.30;;;;;;4928276;29;20172;-72
2022/01/06 09:16:03;;;;;;;3.43;1.30;;;-0.90;96.30;;;;;;4937895;29;20661;-73
2022/01/06 09:18:29;;;;;;;2.90;1.33;;;-0.80;96.30;;;;;;4937941;29;20184;-75
2022/01/06 09:20:55;;;;;;;4.83;1.43;;;-0.90;96.30;;;;;;4937617;29;20985;-74
2022/01/06 09:23:20;;;;;;;5.87;1.30;;;-1.10;96.30;;;;;;4927028;29;20185;-75
2022/01/06 09:25:46;;;;;;;4.43;2.37;;;-0.90;96.30;;;;;;4917101;29;20782;-73
2022/01/06 09:28:12;;;;;;;5.10;1.90;;;-0.80;96.30;;;;;;4914153;29;20291;-74
2022/01/06 09:30:38;;;;;;;3.23;1.57;;;-0.80;96.30;;;;;;4910787;29;20208;-74
2022/01/06 09:33:04;;;;;;;5.77;1.20;;;-0.70;96.30;;;;;;4909183;29;20188;-75
2022/01/06 09:35:29;;;;;;;2.20;1.23;;;-0.60;96.30;;;;;;4916817;29;20796;-76
2022/01/06 09:37:55;;;;;;;4.20;1.47;;;-0.70;96.30;;;;;;4932763;29;20185;-76
2022/01/06 09:40:21;;;;;;;5.43;1.33;;;-0.50;96.30;;;;;;4918085;29;20208;-75
2022/01/06 09:42:46;;;;;;;6.10;1.60;;;-0.40;96.30;;;;;;4945946;29;20181;-76
2022/01/06 09:45:12;;;;;;;8.17;1.50;;;-0.40;96.30;;;;;;4919290;29;20185;-77
2022/01/06 09:47:39;;;;;;;3.10;1.20;;;-0.30;96.30;;;;;;4918140;29;20171;-76
2022/01/06 09:50:06;;;;;;;2.20;1.33;;;-0.20;96.30;;;;;;4916867;29;20424;-77
2022/01/06 09:52:33;;;;;;;5.07;1.93;;;-0.40;96.30;;;;;;4922287;29;20443;-75
2022/01/06 09:54:59;;;;;;;3.83;1.80;;;-0.50;96.30;;;;;;4915595;29;20464;-74
2022/01/06 09:57:25;;;;;;;1.83;1.13;;;-0.60;96.30;;;;;;4908880;29;21984;-75
2022/01/06 09:59:50;;;;;;;6.83;2.10;;;-0.40;96.30;;;;;;4918702;29;20179;-77
2022/01/06 10:02:16;;;;;;;3.60;1.77;;;-0.30;96.30;;;;;;4942485;29;20695;-77
2022/01/06 10:04:56;;;;;;;2.57;1.27;;;-0.60;96.30;;;;;;4911969;29;20498;-76
2022/01/06 10:07:22;;;;;;;3.17;1.70;;;-0.50;96.30;;;;;;4909008;29;20475;-76
2022/01/06 10:09:49;;;;;;;6.20;2.10;;;-0.30;96.30;;;;;;4919863;29;20428;-76
2022/01/06 10:12:14;;;;;;;3.17;1.70;;;-0.30;96.30;;;;;;4917584;29;20200;-76
2022/01/06 10:14:44;;;;;;;2.97;1.73;;;-0.30;96.30;;;;;;4921307;29;20435;-76
2022/01/06 10:17:17;;;;;;;4.60;1.87;;;-0.40;96.30;;;;;;4934057;29;20226;-75
2022/01/06 10:19:45;;;;;;;4.70;2.00;;;-0.30;96.30;;;;;;4916557;29;20460;-77
2022/01/06 10:22:13;;;;;;;5.17;1.80;;;0.20;96.30;;;;;;4919931;29;20455;-72
2022/01/06 10:24:39;;;;;;;2.97;1.60;;;0.40;96.30;;;;;;4918648;29;20880;-75
2022/01/06 10:27:07;;;;;;;2.37;1.57;;;0.60;96.30;;;;;;4928913;29;20554;-72
2022/01/06 10:29:35;;;;;;;6.73;2.00;;;0.40;96.30;;;;;;4935404;29;20430;-74
2022/01/06 10:32:05;;;;;;;4.93;1.97;;;0.30;96.30;;;;;;4919558;29;20446;-72
2022/01/06 10:34:32;;;;;;;3.87;1.60;;;0.90;96.30;;;;;;4917808;29;20420;-74
2022/01/06 10:36:59;;;;;;;6.17;1.70;;;1.50;96.30;;;;;;4935214;29;20416;-72
2022/01/06 10:39:25;;;;;;;3.53;1.10;;;1.70;96.30;;;;;;4928512;29;20424;-75
2022/01/06 10:41:51;;;;;;;1.73;1.20;;;1.50;96.30;;;;;;4916073;29;20440;-72
2022/01/06 10:44:17;;;;;;;3.47;1.80;;;0.90;96.30;;;;;;4917073;29;20208;-78
2022/01/06 10:46:44;;;;;;;4.13;1.80;;;0.70;96.30;;;;;;4917137;29;20459;-72
2022/01/06 10:49:12;;;;;;;5.10;1.80;;;0.70;96.30;;;;;;4917071;29;20176;-73
2022/01/06 10:51:45;;;;;;;3.90;1.40;;;1.00;96.30;;;;;;4916699;29;20780;-73
2022/01/06 10:54:14;;;;;;;3.63;1.50;;;2.10;96.30;;;;;;4916892;29;20404;-72
2022/01/06 10:56:40;;;;;;;1.97;1.50;;;3.10;96.30;;;;;;4916868;29;20428;-76
2022/01/06 10:59:05;;;;;;;5.43;1.33;;;2.90;96.30;;;;;;4930273;29;20427;-77
2022/01/06 11:01:33;;;;;;;2.90;1.47;;;2.70;96.30;;;;;;4935874;29;20206;-72
2022/01/06 11:03:59;;;;;;;2.93;1.43;;;2.20;96.30;;;;;;4929792;29;20219;-74
2022/01/06 11:06:24;;;;;;;4.53;1.53;;;1.80;96.30;;;;;;4914241;29;20451;-73
2022/01/06 11:08:52;;;;;;;5.40;1.20;;;1.40;96.30;;;;;;4916640;29;20172;-73
2022/01/06 11:11:31;;;;;;;2.70;1.20;;;1.00;96.30;;;;;;4917052;29;20221;-72
2022/01/06 11:13:57;;;;;;;3.93;1.77;;;0.50;96.30;;;;;;4916534;29;20399;-72
2022/01/06 11:16:22;;;;;;;7.20;1.77;;;1.10;96.30;;;;;;4916506;29;20428;-74
2022/01/06 11:18:53;;;;;;;6.47;1.37;;;1.20;96.30;;;;;;4915831;29;20562;-74
2022/01/06 11:21:24;;;;;;;1.83;1.33;;;1.10;96.30;;;;;;4913037;29;20234;-81
2022/01/06 11:24:13;;;;;;;4.90;1.60;;;1.00;96.30;;;;;;4928806;29;20779;-72
2022/01/06 11:26:40;;;;;;;2.70;1.30;;;0.90;96.30;;;;;;4926259;29;20471;-74
2022/01/06 11:29:06;;;;;;;3.00;1.53;;;1.40;96.30;;;;;;4932014;29;20518;-75
2022/01/06 11:31:39;;;;;;;2.93;1.30;;;1.20;96.30;;;;;;4935467;29;20848;-76
2022/01/06 11:34:15;;;;;;;3.43;1.60;;;0.60;96.30;;;;;;4934615;29;20250;-76
2022/01/06 11:36:41;;;;;;;1.67;0.97;;;1.10;96.30;;;;;;4916411;29;20427;-71
2022/01/06 11:39:18;;;;;;;2.50;1.40;;;1.50;96.30;;;;;;4916445;29;20420;-72
2022/01/06 11:41:44;;;;;;;3.47;1.47;;;1.60;96.30;;;;;;4916417;29;20459;-72
2022/01/06 11:44:46;;;;;;;3.50;1.60;;;1.60;96.30;;;;;;4915246;29;20511;-75
2022/01/06 11:47:12;;;;;;;2.60;1.30;;;1.60;96.30;;;;;;4928344;29;20202;-76
2022/01/06 11:49:40;;;;;;;4.63;1.70;;;1.30;96.30;;;;;;4935046;29;20421;-74
2022/01/06 11:52:12;;;;;;;4.07;1.50;;;1.40;96.30;;;;;;4934857;29;20262;-78
2022/01/06 11:55:13;;;;;;;2.50;1.30;;;1.50;96.30;;;;;;4915923;29;20448;-75
2022/01/06 11:57:39;;;;;;;2.90;1.13;;;1.80;96.30;;;;;;4915320;29;20445;-72
2022/01/06 12:00:26;;;;;;;3.53;1.63;;;1.80;96.30;;;;;;4916113;29;20896;-72
2022/01/06 12:03:11;;;;;;;5.03;1.30;;;1.60;96.30;;;;;;4917870;29;20647;-72
2022/01/06 12:06:04;;;;;;;4.83;1.03;;;1.40;96.30;;;;;;4915883;29;20518;-72
2022/01/06 12:08:41;;;;;;;1.63;1.13;;;1.20;96.30;;;;;;4912420;29;20972;-73
2022/01/06 12:11:19;;;;;;;2.03;1.10;;;1.40;96.30;;;;;;4914625;29;20813;-72
2022/01/06 12:13:46;;;;;;;5.63;1.10;;;1.50;96.30;;;;;;4920446;29;20815;-73
2022/01/06 12:16:22;;;;;;;4.60;1.30;;;1.30;96.30;;;;;;4927995;29;20499;-72
2022/01/06 12:18:47;;;;;;;2.50;1.27;;;1.10;96.30;;;;;;4929394;29;20408;-73
2022/01/06 12:21:13;;;;;;;3.70;1.30;;;1.10;96.30;;;;;;4915487;29;20446;-73
2022/01/06 12:23:39;;;;;;;4.03;1.30;;;1.40;96.30;;;;;;4915711;29;20184;-72
2022/01/06 12:26:08;;;;;;;4.73;1.40;;;1.40;96.30;;;;;;4922760;29;20571;-76
2022/01/06 12:28:45;;;;;;;5.70;1.30;;;1.10;96.30;;;;;;4928681;29;20310;-72
2022/01/06 12:44:09;;;;;;;1.60;1.20;;;1.00;96.30;;;;;;5663507;23;20561;-72
2022/01/06 12:46:42;;;;;;;2.83;1.13;;;0.90;96.30;;;;;;4924303;29;20495;-72
2022/01/06 12:49:09;;;;;;;1.60;1.03;;;1.00;96.30;;;;;;4915808;29;20448;-72
2022/01/06 13:01:58;;;;;;;7.00;1.97;;;0.50;96.30;;;;;;5605833;23;20558;-74
2022/01/06 13:04:27;;;;;;;3.67;1.37;;;0.30;96.30;;;;;;4933742;29;20471;-75
2022/01/06 13:07:00;;;;;;;6.83;1.27;;;0.30;96.30;;;;;;4934068;29;20455;-75
2022/01/06 13:09:30;;;;;;;4.00;1.47;;;0.10;96.30;;;;;;4934250;29;20419;-74
2022/01/06 13:11:58;;;;;;;2.03;1.00;;;0.10;96.30;;;;;;4934154;29;20461;-75
2022/01/06 13:14:43;;;;;;;1.43;1.13;;;0.10;96.30;;;;;;4949836;29;20430;-74
2022/01/06 13:17:29;;;;;;;3.40;1.53;;;0.00;96.30;;;;;;4939409;29;20437;-75
2022/01/06 13:20:03;;;;;;;4.77;1.57;;;0.00;96.30;;;;;;4927934;29;20439;-75
2022/01/06 13:22:48;;;;;;;2.50;1.43;;;-0.20;96.30;;;;;;4936154;29;20481;-75
2022/01/06 13:25:22;;;;;;;5.17;1.20;;;-0.20;96.30;;;;;;4950993;29;20419;-74
2022/01/06 13:27:59;;;;;;;1.13;0.90;;;-0.30;96.30;;;;;;4920530;29;20427;-74
2022/01/06 13:30:35;;;;;;;3.00;1.40;;;-0.30;96.30;;;;;;4940040;29;20429;-75
2022/01/06 13:33:07;;;;;;;2.07;1.30;;;-0.20;96.30;;;;;;4947149;29;20482;-75
2022/01/06 13:35:33;;;;;;;5.93;1.60;;;-0.10;96.30;;;;;;4940566;29;20427;-75
2022/01/06 13:37:58;;;;;;;6.97;2.10;;;0.00;96.30;;;;;;4930671;29;20939;-74
2022/01/06 13:40:26;;;;;;;4.30;1.87;;;0.00;96.30;;;;;;4904072;29;21148;-74
2022/01/06 13:42:53;;;;;;;2.37;1.37;;;-0.10;96.30;;;;;;4934543;29;20207;-74
2022/01/06 13:48:04;;;;;;;3.30;1.70;;;-0.10;96.30;;;;;;4937248;29;20422;-75
2022/01/06 13:53:46;;;;;;;3.70;1.50;;;0.00;96.30;;;;;;4930701;29;20552;-74
2022/01/06 13:56:30;;;;;;;2.13;1.53;;;0.00;96.30;;;;;;4919845;29;20431;-75
2022/01/06 13:58:59;;;;;;;2.10;1.30;;;-0.10;96.30;;;;;;4921757;29;20431;-75
2022/01/06 14:01:27;;;;;;;2.73;1.40;;;-0.10;96.30;;;;;;4937419;29;21014;-75
2022/01/06 14:03:56;;;;;;;4.13;1.30;;;-0.20;96.30;;;;;;4921058;29;20428;-73
2022/01/06 14:06:22;;;;;;;3.73;1.00;;;-0.30;96.30;;;;;;4924237;29;20444;-72
2022/01/06 14:08:47;;;;;;;3.30;1.20;;;-0.40;96.30;;;;;;4936910;29;20952;-71
2022/01/06 14:11:16;;;;;;;2.20;1.60;;;-0.50;96.30;;;;;;4936742;29;20255;-72
2022/01/06 14:13:43;;;;;;;2.90;1.30;;;-0.60;96.30;;;;;;4919572;29;20175;-74
2022/01/06 14:16:10;;;;;;;6.83;1.97;;;-0.60;96.30;;;;;;4936780;29;20794;-75
2022/01/06 14:18:35;;;;;;;3.90;1.77;;;-0.70;96.30;;;;;;4945842;29;20465;-76
2022/01/06 14:21:01;;;;;;;5.80;1.93;;;-0.70;96.30;;;;;;4942467;29;20479;-76
2022/01/06 14:23:30;;;;;;;1.90;1.27;;;-0.70;96.30;;;;;;4937704;29;20219;-73
2022/01/06 14:25:57;;;;;;;3.90;2.03;;;-0.80;96.30;;;;;;4917559;29;20503;-73
2022/01/06 14:28:24;;;;;;;2.30;1.37;;;-1.00;96.30;;;;;;4936077;29;20451;-74
2022/01/06 14:30:49;;;;;;;2.90;1.73;;;-1.00;96.30;;;;;;4933027;29;20463;-73
2022/01/06 14:33:15;;;;;;;2.97;1.20;;;-1.00;96.30;;;;;;4952319;29;20454;-74
2022/01/06 14:35:41;;;;;;;4.27;1.80;;;-1.00;96.30;;;;;;4937089;29;20194;-74
2022/01/06 14:38:07;;;;;;;1.83;1.13;;;-1.00;96.30;;;;;;4936327;29;20502;-73
2022/01/06 14:40:32;;;;;;;4.87;1.10;;;-1.10;96.30;;;;;;4940446;29;20206;-73
2022/01/06 14:43:00;;;;;;;4.20;1.63;;;-1.10;96.30;;;;;;4954923;29;20201;-73
2022/01/06 14:45:33;;;;;;;3.70;1.63;;;-1.10;96.30;;;;;;4936616;29;20207;-75
2022/01/06 14:48:00;;;;;;;4.40;2.17;;;-1.20;96.30;;;;;;4936297;29;20444;-74
2022/01/06 14:50:26;;;;;;;3.23;1.60;;;-1.30;96.30;;;;;;4944086;29;20426;-74
2022/01/06 14:52:52;;;;;;;4.17;1.63;;;-1.30;96.30;;;;;;4955410;29;20752;-74
2022/01/06 14:55:17;;;;;;;4.80;1.60;;;-1.30;96.30;;;;;;4947604;29;20420;-73
2022/01/06 14:57:43;;;;;;;3.40;1.70;;;-1.30;96.30;;;;;;4937889;29;20186;-74
2022/01/06 15:00:12;;;;;;;5.27;2.30;;;-1.40;96.30;;;;;;4936496;29;20171;-74
2022/01/06 15:02:38;;;;;;;2.03;1.60;;;-1.50;96.30;;;;;;4948398;29;20191;-73
2022/01/06 15:05:05;;;;;;;5.10;2.00;;;-1.50;96.30;;;;;;4950874;29;20416;-76
2022/01/06 15:07:31;;;;;;;1.90;1.40;;;-1.50;96.30;;;;;;4935744;29;20455;-73
2022/01/06 15:09:56;;;;;;;3.47;1.83;;;-1.50;96.30;;;;;;4918739;29;20434;-73
2022/01/06 15:12:22;;;;;;;4.60;1.70;;;-1.60;96.30;;;;;;4938811;29;20212;-78
2022/01/06 15:14:47;;;;;;;7.00;1.90;;;-1.70;96.30;;;;;;4915753;29;20187;-74
2022/01/06 15:17:13;;;;;;;6.70;1.43;;;-1.80;96.30;;;;;;4934990;29;20201;-77
2022/01/06 15:19:38;;;;;;;1.70;1.00;;;-1.90;96.30;;;;;;4937141;29;20681;-74
2022/01/06 15:22:05;;;;;;;7.37;4.50;;;-1.90;96.30;;;;;;4954789;29;20203;-75
2022/01/06 15:24:31;;;;;;;3.10;2.30;;;-1.90;96.30;;;;;;4953895;29;20278;-75
2022/01/06 15:26:56;;;;;;;6.30;4.33;;;-1.90;96.30;;;;;;4954075;29;20564;-74
2022/01/06 15:29:22;;;;;;;2.93;2.47;;;-1.90;96.30;;;;;;4946683;29;20664;-74
2022/01/06 15:31:47;;;;;;;7.17;1.97;;;-1.90;96.30;;;;;;4925367;29;20227;-75
2022/01/06 15:34:13;;;;;;;5.80;1.77;;;-1.90;96.30;;;;;;4909921;29;20180;-74
2022/01/06 15:36:39;;;;;;;4.67;2.50;;;-1.90;96.30;;;;;;4911380;29;20191;-74
2022/01/06 15:39:04;;;;;;;9.10;3.30;;;-1.90;96.30;;;;;;4911887;29;20186;-75
2022/01/06 15:41:30;;;;;;;4.40;3.37;;;-2.00;96.30;;;;;;4927537;29;20240;-76
2022/01/06 15:43:56;;;;;;;7.87;2.90;;;-2.00;96.30;;;;;;4915961;29;20639;-75
2022/01/06 15:46:23;;;;;;;3.17;2.80;;;-2.10;96.30;;;;;;4914638;29;20964;-73
2022/01/06 15:48:49;;;;;;;9.23;2.40;;;-2.10;96.30;;;;;;4932611;29;20182;-76
2022/01/06 15:51:15;;;;;;;3.43;2.97;;;-2.10;96.30;;;;;;4914105;29;20443;-72
2022/01/06 15:53:41;;;;;;;4.70;3.20;;;-2.20;96.30;;;;;;4923318;29;20412;-72
2022/01/06 15:56:06;;;;;;;7.47;2.70;;;-2.20;96.30;;;;;;4924047;29;20820;-74
2022/01/06 15:58:32;;;;;;;5.97;2.30;;;-2.20;96.30;;;;;;4934807;29;20179;-74
2022/01/06 16:06:26;;;;;;;2.57;2.00;;;-2.20;96.30;;;;;;4929063;29;20507;-76
2022/01/06 16:08:55;;;;;;;5.70;2.87;;;-2.20;96.30;;;;;;4918059;29;20427;-76
2022/01/06 16:11:21;;;;;;;2.10;1.90;;;-2.20;96.30;;;;;;4936282;29;20231;-75
2022/01/06 16:13:46;;;;;;;4.33;3.10;;;-2.40;96.30;;;;;;4919055;29;20452;-74
2022/01/06 16:16:12;;;;;;;3.53;2.17;;;-2.50;96.30;;;;;;4941121;29;20183;-76
2022/01/06 16:18:38;;;;;;;1.73;1.40;;;-2.50;96.30;;;;;;4915288;29;20192;-77
2022/01/06 16:21:04;;;;;;;2.47;1.63;;;-2.60;96.30;;;;;;4952968;29;20289;-77
2022/01/06 16:23:30;;;;;;;5.33;2.40;;;-2.60;96.30;;;;;;4934198;29;20771;-75
2022/01/06 16:25:56;;;;;;;7.17;2.53;;;-2.60;96.30;;;;;;4906998;29;20479;-77
2022/01/06 16:28:22;;;;;;;2.77;2.23;;;-2.50;96.30;;;;;;4928649;29;20182;-77
2022/01/06 16:31:13;;;;;;;5.30;2.63;;;-2.50;96.30;;;;;;4923626;29;20530;-75
2022/01/06 16:33:40;;;;;;;5.10;2.90;;;-2.60;96.30;;;;;;4914426;29;20423;-74
2022/01/06 16:36:07;;;;;;;6.57;2.43;;;-2.60;96.30;;;;;;4914563;29;20478;-74
2022/01/06 16:38:34;;;;;;;6.53;2.30;;;-2.50;96.30;;;;;;4933004;29;20471;-77
2022/01/06 16:40:59;;;;;;;6.07;2.10;;;-2.50;96.30;;;;;;4931623;29;20463;-75
2022/01/06 16:43:26;;;;;;;3.03;2.23;;;-2.50;96.30;;;;;;4930761;29;20599;-75
2022/01/06 16:45:52;;;;;;;4.77;3.07;;;-2.50;96.30;;;;;;4931706;29;20572;-75
2022/01/06 16:48:18;;;;;;;5.70;3.20;;;-2.60;96.30;;;;;;4919023;29;20430;-75
2022/01/06 16:50:43;;;;;;;4.33;3.60;;;-2.70;96.30;;;;;;4917492;29;20451;-74
2022/01/06 16:53:09;;;;;;;4.70;3.10;;;-2.80;96.30;;;;;;4930391;29;20239;-76
2022/01/06 16:55:39;;;;;;;5.73;2.80;;;-2.70;96.30;;;;;;4920487;29;20215;-75
2022/01/06 16:58:05;;;;;;;7.30;3.07;;;-2.70;96.30;;;;;;4935635;29;20194;-73
2022/01/06 17:00:31;;;;;;;3.90;2.40;;;-2.60;96.30;;;;;;4937811;29;20419;-74
2022/01/06 17:02:57;;;;;;;4.20;1.90;;;-2.70;96.30;;;;;;4936151;29;20434;-75
2022/01/06 17:05:23;;;;;;;7.63;2.67;;;-2.60;96.30;;;;;;4919047;29;20178;-76
2022/01/06 17:07:54;;;;;;;3.80;3.30;;;-2.70;96.30;;;;;;4937241;29;20427;-76
2022/01/06 17:10:20;;;;;;;3.17;2.00;;;-2.70;96.30;;;;;;4903071;29;20184;-74
2022/01/06 17:12:45;;;;;;;4.50;2.37;;;-2.80;96.30;;;;;;4935341;29;20427;-75
2022/01/06 17:15:11;;;;;;;3.43;2.27;;;-2.80;96.30;;;;;;4931802;29;20974;-75
2022/01/06 17:17:36;;;;;;;3.77;2.03;;;-2.80;96.30;;;;;;4937923;29;20184;-74
2022/01/06 17:20:04;;;;;;;5.80;2.20;;;-2.80;96.30;;;;;;4928546;29;20640;-73
2022/01/06 17:22:29;;;;;;;7.07;3.67;;;-2.90;96.30;;;;;;4934992;29;20215;-76
2022/01/06 17:24:55;;;;;;;14.77;5.90;;;-2.90;96.30;;;;;;4932563;29;20471;-73
2022/01/06 17:27:20;;;;;;;5.93;3.03;;;-2.80;96.30;;;;;;4937228;29;20671;-74
2022/01/06 17:29:46;;;;;;;4.77;2.47;;;-2.90;96.30;;;;;;4936622;29;20235;-74
2022/01/06 17:32:12;;;;;;;8.57;3.87;;;-2.90;96.30;;;;;;4936002;29;20230;-75
2022/01/06 17:34:37;;;;;;;8.50;3.87;;;-2.90;96.30;;;;;;4911700;29;20217;-75
2022/01/06 17:37:03;;;;;;;6.53;3.17;;;-2.90;96.30;;;;;;4931085;29;20255;-77
2022/01/06 17:39:29;;;;;;;5.40;3.77;;;-2.90;96.30;;;;;;4917593;29;20219;-76
2022/01/06 17:41:55;;;;;;;7.30;4.40;;;-2.90;96.30;;;;;;4923632;29;20505;-77
2022/01/06 17:44:21;;;;;;;4.53;3.73;;;-3.00;96.30;;;;;;4937223;29;20180;-76
2022/01/06 17:46:47;;;;;;;5.50;3.00;;;-3.10;96.30;;;;;;4938929;29;20212;-78
2022/01/06 17:49:12;;;;;;;7.47;4.97;;;-3.10;96.30;;;;;;4918307;29;20231;-78
2022/01/06 17:51:39;;;;;;;6.50;4.37;;;-3.00;96.30;;;;;;4940272;29;20529;-76
2022/01/06 17:54:05;;;;;;;6.77;3.77;;;-3.00;96.30;;;;;;4940772;29;20639;-78
2022/01/06 17:56:31;;;;;;;4.40;3.53;;;-2.90;96.30;;;;;;4939273;29;20497;-78
2022/01/06 17:58:56;;;;;;;5.90;3.67;;;-2.90;96.30;;;;;;4956314;28;20517;-77
2022/01/06 18:01:22;;;;;;;3.80;2.30;;;-2.80;96.30;;;;;;4945485;29;20210;-76
2022/01/06 18:03:48;;;;;;;5.93;4.00;;;-2.80;96.30;;;;;;4945891;29;20247;-76
2022/01/06 18:06:16;;;;;;;3.40;2.40;;;-2.80;96.30;;;;;;4920903;29;20730;-78
2022/01/06 18:11:19;;;;;;;3.77;2.17;;;-2.80;96.30;;;;;;4936870;29;20486;-73
2022/01/06 18:13:46;;;;;;;2.70;1.70;;;-2.70;96.30;;;;;;4919358;29;20407;-74
2022/01/06 18:16:11;;;;;;;6.30;3.10;;;-2.70;96.30;;;;;;4936278;29;20419;-74
2022/01/06 18:18:37;;;;;;;4.20;2.80;;;-2.70;96.30;;;;;;4936611;29;20430;-76